Time;durP1;ratioP1;P1;durP2;ratioP2;P2;SDS_P1;SDS_P2;PMS_P1;PMS_P2;Temp;Humidity;BMP_temperature;BMP_pressure;BME280_temperature;BME280_humidity;BME280_pressure;Samples;Min_cycle;Max_cycle;Signal;HPM_P1;HPM_P2
2021/01/03 00:02:03;;;;;;;19.45;14.63;;;2.30;99.90;;;;;;5034024;28;20181;-78
2021/01/03 00:04:29;;;;;;;21.75;15.35;;;2.40;99.90;;;;;;5015798;28;20639;-79
2021/01/03 00:06:56;;;;;;;23.67;14.93;;;2.60;99.90;;;;;;5032947;28;20232;-78
2021/01/03 00:09:23;;;;;;;20.33;15.02;;;2.70;99.90;;;;;;5033969;28;20227;-78
2021/01/03 00:11:49;;;;;;;25.17;15.25;;;2.60;99.90;;;;;;5016528;28;20177;-79
2021/01/03 00:14:15;;;;;;;20.85;14.98;;;2.80;99.90;;;;;;5015753;28;20180;-78
2021/01/03 00:16:46;;;;;;;19.63;14.57;;;2.60;99.90;;;;;;5015870;28;20697;-79
2021/01/03 00:19:12;;;;;;;22.33;14.90;;;2.60;99.90;;;;;;5015753;28;20197;-79
2021/01/03 00:21:38;;;;;;;23.15;16.35;;;2.60;99.90;;;;;;5016035;28;20180;-79
2021/01/03 00:24:04;;;;;;;21.33;15.18;;;2.60;99.90;;;;;;5033407;28;20204;-78
2021/01/03 00:26:30;;;;;;;23.95;14.95;;;2.60;99.90;;;;;;5015036;28;20180;-78
2021/01/03 00:28:56;;;;;;;20.27;15.27;;;2.60;99.90;;;;;;5015732;28;20680;-78
2021/01/03 00:31:24;;;;;;;22.60;15.07;;;2.70;99.90;;;;;;5015857;28;20168;-80
2021/01/03 00:33:50;;;;;;;19.88;15.20;;;2.70;99.90;;;;;;5033091;28;20322;-78
2021/01/03 00:36:15;;;;;;;20.10;14.43;;;2.70;99.90;;;;;;5033066;28;20591;-78
2021/01/03 00:38:41;;;;;;;21.42;15.23;;;2.70;99.90;;;;;;5033234;28;20665;-78
2021/01/03 00:41:07;;;;;;;20.33;15.02;;;2.60;99.90;;;;;;5015522;28;20466;-78
2021/01/03 00:43:32;;;;;;;21.65;14.30;;;2.90;99.90;;;;;;5015298;28;20208;-79
2021/01/03 00:45:58;;;;;;;20.30;13.50;;;2.70;99.90;;;;;;5015059;28;20187;-78
2021/01/03 00:48:24;;;;;;;21.38;14.75;;;2.70;99.90;;;;;;5032426;28;20693;-78
2021/01/03 00:50:50;;;;;;;22.90;15.02;;;2.70;99.90;;;;;;5014832;28;20177;-78
2021/01/03 00:53:15;;;;;;;23.38;13.85;;;2.60;99.90;;;;;;5032745;28;20228;-79
2021/01/03 00:55:41;;;;;;;20.13;13.98;;;2.30;99.90;;;;;;5015244;28;20177;-79
2021/01/03 00:58:07;;;;;;;20.27;14.38;;;2.80;99.90;;;;;;5032950;28;20288;-78
2021/01/03 01:00:34;;;;;;;18.58;13.93;;;2.70;99.90;;;;;;5033020;28;20527;-78
2021/01/03 01:03:02;;;;;;;22.85;14.77;;;2.80;99.90;;;;;;5014918;28;20201;-78
2021/01/03 01:05:28;;;;;;;22.35;15.02;;;3.00;99.90;;;;;;5015157;28;20635;-79
2021/01/03 01:07:54;;;;;;;19.80;14.68;;;2.80;99.90;;;;;;5014746;28;20230;-79
2021/01/03 01:10:27;;;;;;;20.17;14.52;;;2.80;99.90;;;;;;5032917;28;20173;-78
2021/01/03 01:12:54;;;;;;;21.30;14.73;;;2.90;99.90;;;;;;5032737;28;20196;-79
2021/01/03 01:15:21;;;;;;;18.95;13.55;;;2.90;99.90;;;;;;5014900;28;20184;-79
2021/01/03 01:17:52;;;;;;;21.15;14.73;;;3.50;99.90;;;;;;5032547;28;20287;-78
2021/01/03 01:20:21;;;;;;;21.60;15.38;;;2.90;99.90;;;;;;5014550;28;20577;-78
2021/01/03 01:22:47;;;;;;;20.90;14.63;;;3.10;99.90;;;;;;5014606;28;20196;-78
2021/01/03 01:25:15;;;;;;;20.48;14.65;;;2.90;99.90;;;;;;5014778;28;20185;-78
2021/01/03 01:27:41;;;;;;;19.77;14.45;;;2.90;99.90;;;;;;5032405;28;20199;-79
2021/01/03 01:30:09;;;;;;;20.27;14.82;;;3.00;99.90;;;;;;5031829;28;20176;-78
2021/01/03 01:32:35;;;;;;;21.13;14.65;;;3.10;99.90;;;;;;5014335;28;20196;-79
2021/01/03 01:35:02;;;;;;;20.02;14.07;;;2.90;99.90;;;;;;5014277;28;20179;-78
2021/01/03 01:37:28;;;;;;;20.45;15.60;;;2.80;99.90;;;;;;5032154;28;20224;-78
2021/01/03 01:39:54;;;;;;;19.38;14.80;;;3.20;99.90;;;;;;5014760;28;20226;-79
2021/01/03 01:42:20;;;;;;;20.85;15.32;;;3.00;99.90;;;;;;5032013;28;20598;-78
2021/01/03 01:44:46;;;;;;;20.15;15.18;;;3.00;99.90;;;;;;5032273;28;20179;-79
2021/01/03 01:47:19;;;;;;;20.85;15.57;;;3.10;99.90;;;;;;5031927;28;20196;-79
2021/01/03 01:49:46;;;;;;;23.85;17.15;;;3.20;99.90;;;;;;5014101;28;20200;-78
2021/01/03 01:52:15;;;;;;;19.95;14.88;;;3.50;99.90;;;;;;5031931;28;20659;-78
2021/01/03 01:54:45;;;;;;;23.13;15.25;;;3.00;99.90;;;;;;5014565;28;20532;-78
2021/01/03 01:57:29;;;;;;;23.00;15.63;;;2.90;99.90;;;;;;5014177;28;20243;-78
2021/01/03 02:00:10;;;;;;;20.00;15.57;;;2.90;99.90;;;;;;5031796;28;20165;-78
2021/01/03 02:02:58;;;;;;;21.38;15.02;;;2.90;99.90;;;;;;5012901;28;20824;-78
2021/01/03 02:05:32;;;;;;;20.02;14.43;;;3.00;99.90;;;;;;5032301;28;20168;-79
2021/01/03 02:08:20;;;;;;;20.65;15.13;;;3.00;99.90;;;;;;5031727;28;20228;-79
2021/01/03 02:10:48;;;;;;;20.75;14.25;;;3.10;99.90;;;;;;5031993;28;20308;-79
2021/01/03 02:13:26;;;;;;;22.38;15.65;;;2.90;99.90;;;;;;5031618;28;20186;-78
2021/01/03 02:15:59;;;;;;;18.42;13.68;;;3.00;99.90;;;;;;5031902;28;20303;-79
2021/01/03 02:18:25;;;;;;;22.27;14.90;;;3.30;99.90;;;;;;5031552;28;20239;-78
2021/01/03 02:21:13;;;;;;;20.02;14.40;;;3.10;99.90;;;;;;5014331;28;20177;-79
2021/01/03 02:23:44;;;;;;;20.92;14.13;;;3.10;99.90;;;;;;5014160;28;20199;-79
2021/01/03 02:26:13;;;;;;;18.10;13.55;;;2.60;99.90;;;;;;5031163;28;20670;-78
2021/01/03 02:28:43;;;;;;;20.63;15.18;;;3.20;99.90;;;;;;5031747;28;20307;-78
2021/01/03 02:31:15;;;;;;;20.05;14.32;;;3.20;99.90;;;;;;5014371;28;20176;-78
2021/01/03 02:33:46;;;;;;;19.33;14.07;;;3.00;99.90;;;;;;5031414;28;20192;-79
2021/01/03 02:36:22;;;;;;;16.88;13.57;;;3.10;99.90;;;;;;5013315;28;20181;-79
2021/01/03 02:39:03;;;;;;;19.83;13.75;;;2.90;99.90;;;;;;5013828;28;20198;-79
2021/01/03 02:41:29;;;;;;;19.17;14.05;;;3.10;99.90;;;;;;5013936;28;20168;-78
2021/01/03 02:43:55;;;;;;;22.95;16.88;;;3.10;99.90;;;;;;5013798;28;20196;-78
2021/01/03 02:46:22;;;;;;;22.00;16.00;;;2.80;99.90;;;;;;5014041;28;20246;-78
2021/01/03 02:48:47;;;;;;;19.30;14.50;;;3.00;99.90;;;;;;5031014;28;20195;-78
2021/01/03 02:51:13;;;;;;;28.10;17.95;;;3.20;99.90;;;;;;5014085;28;20180;-78
2021/01/03 02:53:39;;;;;;;26.20;18.58;;;3.10;99.90;;;;;;5031673;28;20193;-78
2021/01/03 02:56:05;;;;;;;25.45;19.15;;;2.90;99.90;;;;;;5013723;28;20179;-78
2021/01/03 02:58:31;;;;;;;27.08;19.02;;;;;;;;;;5031426;28;20243;-78
2021/01/03 03:00:57;;;;;;;29.38;20.08;;;3.00;99.90;;;;;;5031259;28;20165;-78
2021/01/03 03:03:22;;;;;;;28.33;19.70;;;2.60;99.90;;;;;;5031835;28;20647;-78
2021/01/03 03:05:48;;;;;;;28.88;21.20;;;2.90;99.90;;;;;;5031051;28;20168;-78
2021/01/03 03:08:14;;;;;;;32.65;21.67;;;2.80;99.90;;;;;;5031523;28;20227;-79
2021/01/03 03:10:39;;;;;;;27.45;21.08;;;3.10;99.90;;;;;;5012681;28;20675;-78
2021/01/03 03:13:05;;;;;;;32.45;20.52;;;3.10;99.90;;;;;;5031349;28;20263;-78
2021/01/03 03:15:32;;;;;;;33.28;21.77;;;2.60;99.90;;;;;;5015764;28;20223;-78
2021/01/03 03:17:59;;;;;;;29.83;20.85;;;2.90;99.90;;;;;;5034636;28;20223;-78
2021/01/03 03:20:25;;;;;;;30.52;21.27;;;2.90;99.90;;;;;;5016935;28;20177;-78
2021/01/03 03:22:51;;;;;;;34.65;21.38;;;2.90;99.90;;;;;;5017067;28;20189;-78
2021/01/03 03:25:18;;;;;;;31.40;21.23;;;3.10;99.90;;;;;;5016905;28;20204;-78
2021/01/03 03:27:44;;;;;;;31.67;21.15;;;3.00;99.90;;;;;;5034758;28;20188;-78
2021/01/03 03:30:14;;;;;;;33.17;22.15;;;2.90;99.90;;;;;;5034820;28;20674;-78
2021/01/03 03:32:40;;;;;;;33.30;22.30;;;2.90;99.90;;;;;;5034793;28;20319;-78
2021/01/03 03:35:08;;;;;;;34.92;22.83;;;2.60;99.90;;;;;;5034321;28;20211;-79
2021/01/03 03:37:34;;;;;;;32.55;21.60;;;2.80;99.90;;;;;;5016506;28;20757;-78
2021/01/03 03:39:59;;;;;;;32.75;22.38;;;2.80;99.90;;;;;;5034760;28;20172;-78
2021/01/03 03:42:25;;;;;;;36.15;22.40;;;3.50;99.90;;;;;;5034427;28;20196;-78
2021/01/03 03:44:51;;;;;;;36.90;22.33;;;;;;;;;;5034586;28;20164;-79
2021/01/03 03:47:17;;;;;;;35.83;23.10;;;2.70;99.90;;;;;;5016057;28;20204;-78
2021/01/03 03:49:42;;;;;;;35.42;21.38;;;2.90;99.90;;;;;;5016200;28;20786;-78
2021/01/03 03:52:08;;;;;;;37.38;22.17;;;2.90;99.90;;;;;;5016309;28;20661;-78
2021/01/03 03:54:34;;;;;;;36.53;22.77;;;2.90;99.90;;;;;;5016708;28;20165;-79
2021/01/03 03:57:04;;;;;;;33.80;22.17;;;2.60;99.90;;;;;;5034017;28;20200;-78
2021/01/03 03:59:30;;;;;;;35.85;22.95;;;2.90;99.90;;;;;;5034485;28;20168;-78
2021/01/03 04:01:56;;;;;;;38.30;23.17;;;2.90;99.90;;;;;;5015977;28;20165;-78
2021/01/03 04:04:24;;;;;;;43.30;23.70;;;2.90;99.90;;;;;;5015020;28;20267;-78
2021/01/03 04:06:50;;;;;;;39.42;24.02;;;2.90;99.90;;;;;;5033055;28;20196;-78
2021/01/03 04:09:17;;;;;;;36.65;22.65;;;2.80;99.90;;;;;;5034468;28;20196;-78
2021/01/03 04:11:45;;;;;;;42.05;24.33;;;2.90;99.90;;;;;;5000011;28;20211;-79
2021/01/03 04:14:13;;;;;;;36.15;21.65;;;3.10;99.90;;;;;;5033346;28;20793;-79
2021/01/03 04:16:46;;;;;;;41.40;23.80;;;2.90;99.90;;;;;;5034375;28;20254;-79
2021/01/03 04:19:13;;;;;;;41.90;22.15;;;;;;;;;;5033193;28;20865;-79
2021/01/03 04:21:39;;;;;;;43.25;25.13;;;2.90;99.90;;;;;;5016111;28;20176;-78
2021/01/03 04:24:05;;;;;;;37.67;21.55;;;2.90;99.90;;;;;;5033811;28;20210;-78
2021/01/03 04:26:31;;;;;;;43.15;24.17;;;2.90;99.90;;;;;;5032707;28;20247;-77
2021/01/03 04:28:57;;;;;;;37.72;22.98;;;2.80;99.90;;;;;;5033537;28;20300;-77
2021/01/03 04:31:23;;;;;;;36.45;23.50;;;2.90;99.90;;;;;;5033864;28;20176;-78
2021/01/03 04:33:49;;;;;;;40.88;22.30;;;2.90;99.90;;;;;;5015137;28;20596;-78
2021/01/03 04:36:19;;;;;;;38.15;22.38;;;2.80;99.90;;;;;;5015909;28;20304;-79
2021/01/03 04:38:45;;;;;;;39.15;22.45;;;2.80;99.90;;;;;;5033427;28;20227;-79
2021/01/03 04:41:34;;;;;;;35.97;22.98;;;2.80;99.90;;;;;;5033625;28;20169;-78
2021/01/03 04:44:03;;;;;;;35.92;22.50;;;2.80;99.90;;;;;;5033172;28;20184;-78
2021/01/03 04:46:35;;;;;;;33.88;21.77;;;2.80;99.90;;;;;;5033140;28;20173;-78
2021/01/03 04:49:04;;;;;;;34.28;21.38;;;2.80;99.90;;;;;;5014943;28;20192;-78
2021/01/03 04:51:40;;;;;;;35.35;20.58;;;2.80;99.90;;;;;;5033449;28;20164;-78
2021/01/03 04:54:12;;;;;;;36.70;22.38;;;2.80;99.90;;;;;;5033180;28;20189;-78
2021/01/03 04:56:41;;;;;;;35.42;20.83;;;2.80;99.90;;;;;;5032854;28;20204;-78
2021/01/03 04:59:32;;;;;;;34.85;21.73;;;2.90;99.90;;;;;;5033126;28;20199;-78
2021/01/03 05:02:50;;;;;;;32.67;20.30;;;2.90;99.90;;;;;;5032914;28;20175;-78
2021/01/03 05:05:30;;;;;;;33.47;20.58;;;2.90;99.90;;;;;;4916704;29;20658;-78
2021/01/03 05:08:13;;;;;;;33.22;18.80;;;2.90;99.90;;;;;;4917200;29;20239;-78
2021/01/03 05:10:39;;;;;;;35.53;19.77;;;2.90;99.90;;;;;;4933253;29;20780;-78
2021/01/03 05:13:25;;;;;;;32.80;20.00;;;2.90;99.90;;;;;;4917524;29;20203;-78
2021/01/03 05:15:51;;;;;;;33.00;20.00;;;2.90;99.90;;;;;;4933276;29;20562;-78
2021/01/03 05:18:17;;;;;;;29.40;20.80;;;2.90;99.90;;;;;;4932728;29;20228;-79
2021/01/03 05:20:53;;;;;;;32.63;20.42;;;2.90;99.90;;;;;;4917149;29;20196;-78
2021/01/03 05:23:22;;;;;;;32.08;21.05;;;2.90;99.90;;;;;;4917423;29;20199;-78
2021/01/03 05:25:49;;;;;;;30.42;18.60;;;2.90;99.90;;;;;;4932967;29;20186;-79
2021/01/03 05:28:24;;;;;;;32.80;20.45;;;2.90;99.90;;;;;;4916939;29;20234;-78
2021/01/03 05:30:50;;;;;;;32.20;20.45;;;2.90;99.90;;;;;;4917135;29;20246;-78
2021/01/03 05:33:27;;;;;;;31.15;19.10;;;2.80;99.90;;;;;;4932723;29;20227;-78
2021/01/03 05:35:54;;;;;;;29.33;19.00;;;2.90;99.90;;;;;;4932810;29;20730;-78
2021/01/03 05:38:41;;;;;;;32.42;19.65;;;2.90;99.90;;;;;;4932644;29;20223;-78
2021/01/03 05:41:16;;;;;;;26.02;17.45;;;2.80;99.90;;;;;;5001843;28;20184;-78
2021/01/03 05:43:42;;;;;;;30.08;18.60;;;2.80;99.90;;;;;;5031973;28;20180;-78
2021/01/03 05:46:14;;;;;;;28.67;18.85;;;2.80;99.90;;;;;;5032575;28;20639;-79
2021/01/03 05:48:57;;;;;;;26.63;19.23;;;2.80;99.90;;;;;;5032063;28;20274;-78
2021/01/03 05:51:33;;;;;;;26.48;17.58;;;2.80;99.90;;;;;;5032617;28;20557;-79
2021/01/03 05:54:06;;;;;;;25.17;17.00;;;2.80;99.90;;;;;;5032252;28;20203;-78
2021/01/03 05:56:35;;;;;;;26.48;17.15;;;2.80;99.90;;;;;;5032049;28;20181;-78
2021/01/03 05:59:02;;;;;;;25.15;17.90;;;2.80;99.90;;;;;;5032242;28;20188;-78
2021/01/03 06:01:33;;;;;;;26.17;17.13;;;2.80;99.90;;;;;;5014321;28;20176;-78
2021/01/03 06:03:59;;;;;;;25.77;17.27;;;2.80;99.90;;;;;;5013971;28;20200;-78
2021/01/03 06:06:40;;;;;;;23.35;15.57;;;2.80;99.90;;;;;;5032027;28;20195;-78
2021/01/03 06:09:07;;;;;;;22.52;16.10;;;2.80;99.90;;;;;;5014011;28;20255;-78
2021/01/03 06:11:32;;;;;;;21.25;15.02;;;2.80;99.90;;;;;;5014181;28;20192;-78
2021/01/03 06:13:58;;;;;;;21.88;15.68;;;2.80;99.90;;;;;;5014375;28;20223;-78
2021/01/03 06:16:31;;;;;;;21.48;14.75;;;2.80;99.90;;;;;;5014118;28;20172;-78
2021/01/03 06:19:06;;;;;;;21.23;14.95;;;2.80;99.90;;;;;;5014011;28;20197;-78
2021/01/03 06:21:41;;;;;;;20.50;14.95;;;2.60;99.90;;;;;;5014217;28;20177;-79
2021/01/03 06:24:27;;;;;;;21.10;15.15;;;2.80;99.90;;;;;;5013987;28;20195;-78
2021/01/03 06:27:01;;;;;;;18.95;14.30;;;3.10;99.90;;;;;;5014143;28;20176;-78
2021/01/03 06:29:42;;;;;;;19.25;14.20;;;3.00;99.90;;;;;;5013863;28;20178;-79
2021/01/03 06:32:39;;;;;;;16.25;13.15;;;2.90;99.90;;;;;;5013754;28;20253;-79
2021/01/03 06:35:12;;;;;;;18.42;14.45;;;2.80;99.90;;;;;;5013379;28;20204;-79
2021/01/03 06:38:09;;;;;;;19.30;14.20;;;2.80;99.90;;;;;;5031462;28;20342;-79
2021/01/03 06:40:37;;;;;;;18.77;14.35;;;2.70;99.90;;;;;;5013655;28;20215;-79
2021/01/03 06:43:52;;;;;;;19.33;12.82;;;3.00;99.90;;;;;;5013554;28;20226;-79
2021/01/03 06:46:40;;;;;;;17.85;13.55;;;2.80;99.90;;;;;;4986893;28;20177;-79
2021/01/03 06:49:23;;;;;;;18.45;13.23;;;2.80;99.90;;;;;;5013350;28;20192;-79
2021/01/03 06:52:17;;;;;;;17.38;12.90;;;2.80;99.90;;;;;;5017195;28;20187;-79
2021/01/03 06:54:48;;;;;;;17.90;12.80;;;2.80;99.90;;;;;;5017230;28;20177;-79
2021/01/03 06:57:17;;;;;;;17.23;12.57;;;2.70;99.90;;;;;;5017335;28;20216;-79
2021/01/03 06:59:46;;;;;;;16.25;12.20;;;2.80;99.90;;;;;;5017361;28;20325;-78
2021/01/03 07:02:12;;;;;;;15.32;12.85;;;2.80;99.90;;;;;;5017110;28;20196;-79
2021/01/03 07:04:39;;;;;;;17.13;12.73;;;2.80;99.90;;;;;;5016994;28;20231;-79
2021/01/03 07:07:19;;;;;;;18.52;14.30;;;2.80;99.90;;;;;;5016923;28;20192;-78
2021/01/03 07:09:59;;;;;;;17.42;13.20;;;2.80;99.90;;;;;;5017138;28;20263;-78
2021/01/03 07:12:52;;;;;;;17.35;13.77;;;2.80;99.90;;;;;;5017064;28;20196;-78
2021/01/03 07:15:27;;;;;;;19.67;14.30;;;2.70;99.90;;;;;;5030637;28;20222;-78
2021/01/03 07:17:56;;;;;;;21.08;14.48;;;2.70;99.90;;;;;;5034867;28;20219;-79
2021/01/03 07:20:34;;;;;;;19.77;13.90;;;2.70;99.90;;;;;;5016543;28;20542;-78
2021/01/03 07:23:43;;;;;;;19.83;14.15;;;2.70;99.90;;;;;;5034728;28;20189;-78
2021/01/03 07:26:28;;;;;;;19.30;13.30;;;2.80;99.90;;;;;;4918787;29;20180;-77
2021/01/03 07:29:13;;;;;;;18.55;14.32;;;2.80;99.90;;;;;;4935097;29;20326;-78
2021/01/03 07:31:39;;;;;;;19.88;15.80;;;2.80;99.90;;;;;;4919085;29;20191;-79
2021/01/03 07:34:17;;;;;;;17.80;13.25;;;2.80;99.90;;;;;;4934998;29;20271;-78
2021/01/03 07:36:50;;;;;;;19.08;13.70;;;2.80;99.90;;;;;;4919064;29;20297;-78
2021/01/03 07:39:16;;;;;;;20.33;14.15;;;2.60;99.90;;;;;;4935166;29;20180;-79
2021/01/03 07:41:43;;;;;;;18.80;14.43;;;2.70;99.90;;;;;;4934933;29;20184;-79
2021/01/03 07:44:21;;;;;;;18.65;14.50;;;2.90;99.90;;;;;;4934911;29;20204;-78
2021/01/03 07:46:59;;;;;;;19.77;14.43;;;3.10;99.90;;;;;;4918823;29;20180;-78
2021/01/03 07:49:37;;;;;;;21.33;14.18;;;2.90;99.90;;;;;;4918418;29;20176;-79
2021/01/03 07:52:17;;;;;;;18.85;13.35;;;2.80;99.90;;;;;;4934849;29;20175;-79
2021/01/03 07:54:53;;;;;;;19.52;13.73;;;2.90;99.90;;;;;;4934801;29;20188;-78
2021/01/03 07:57:20;;;;;;;20.60;13.95;;;3.00;99.90;;;;;;5004421;28;20705;-79
2021/01/03 07:59:49;;;;;;;17.52;13.10;;;2.80;99.90;;;;;;5034608;28;20291;-79
2021/01/03 08:02:32;;;;;;;19.58;13.77;;;2.80;99.90;;;;;;5016135;28;20690;-79
2021/01/03 08:05:01;;;;;;;21.40;13.57;;;2.80;99.90;;;;;;5015954;28;20204;-78
2021/01/03 08:07:27;;;;;;;19.30;14.50;;;2.80;99.90;;;;;;5033943;28;20231;-79
2021/01/03 08:09:53;;;;;;;20.00;13.82;;;2.80;99.90;;;;;;5016325;28;20173;-78
2021/01/03 08:12:33;;;;;;;19.75;14.07;;;2.80;99.90;;;;;;5033967;28;20631;-79
2021/01/03 08:15:28;;;;;;;19.15;14.00;;;2.80;99.90;;;;;;5032945;28;20623;-78
2021/01/03 08:18:05;;;;;;;18.08;12.80;;;2.80;99.90;;;;;;5020155;28;20628;-78
2021/01/03 08:20:31;;;;;;;19.40;13.38;;;2.80;99.90;;;;;;5016188;28;20599;-78
2021/01/03 08:23:18;;;;;;;16.77;12.77;;;2.80;99.90;;;;;;5033659;28;20192;-78
2021/01/03 08:25:44;;;;;;;17.75;14.07;;;2.80;99.90;;;;;;5033754;28;20188;-78
2021/01/03 08:28:22;;;;;;;18.75;13.73;;;2.80;99.90;;;;;;5015762;28;20192;-77
2021/01/03 08:30:50;;;;;;;17.00;12.77;;;2.90;99.90;;;;;;5033669;28;20164;-78
2021/01/03 08:33:26;;;;;;;18.05;13.13;;;2.80;99.90;;;;;;5015324;28;20238;-78
2021/01/03 08:35:52;;;;;;;17.58;13.30;;;2.90;99.90;;;;;;5033716;28;20251;-78
2021/01/03 08:38:28;;;;;;;18.10;13.63;;;2.80;99.90;;;;;;5015695;28;20216;-78
2021/01/03 08:41:01;;;;;;;17.33;13.13;;;2.90;99.90;;;;;;5015896;28;20230;-78
2021/01/03 08:43:30;;;;;;;19.77;14.10;;;2.90;99.90;;;;;;5015916;28;20567;-79
2021/01/03 08:46:03;;;;;;;18.85;13.43;;;2.90;99.90;;;;;;5015508;28;20267;-79
2021/01/03 08:48:30;;;;;;;17.77;13.05;;;2.90;99.90;;;;;;5032196;28;20196;-78
2021/01/03 08:51:12;;;;;;;18.13;13.68;;;2.90;99.90;;;;;;5033186;28;20169;-78
2021/01/03 08:53:38;;;;;;;17.45;12.20;;;2.90;99.90;;;;;;5015551;28;20207;-79
2021/01/03 08:56:12;;;;;;;18.27;13.32;;;2.80;99.90;;;;;;5015454;28;20184;-78
2021/01/03 08:58:39;;;;;;;17.50;13.30;;;2.50;99.90;;;;;;5033206;28;20212;-78
2021/01/03 09:01:25;;;;;;;16.83;12.57;;;2.80;99.90;;;;;;5015370;28;20661;-78
2021/01/03 09:03:54;;;;;;;17.50;13.07;;;2.90;99.90;;;;;;5014952;28;20200;-79
2021/01/03 09:06:21;;;;;;;15.07;12.40;;;2.80;99.90;;;;;;5017765;28;20184;-79
2021/01/03 09:08:48;;;;;;;17.25;12.98;;;2.90;99.90;;;;;;5032796;28;20224;-78
2021/01/03 09:11:31;;;;;;;18.20;12.70;;;2.60;99.90;;;;;;5015051;28;20264;-78
2021/01/03 09:14:13;;;;;;;18.10;12.63;;;2.90;99.90;;;;;;5014349;28;20231;-78
2021/01/03 09:17:00;;;;;;;18.30;14.02;;;2.80;99.90;;;;;;5032742;28;20203;-78
2021/01/03 09:19:31;;;;;;;18.58;13.40;;;2.60;99.90;;;;;;5014769;28;20177;-79
2021/01/03 09:22:01;;;;;;;17.20;13.05;;;2.90;99.90;;;;;;5032751;28;20171;-78
2021/01/03 09:24:31;;;;;;;15.82;12.77;;;2.90;99.90;;;;;;5015036;28;20658;-81
2021/01/03 09:27:00;;;;;;;15.05;12.48;;;2.90;99.90;;;;;;5035018;28;20168;-78
2021/01/03 09:29:37;;;;;;;21.50;14.05;;;2.90;99.90;;;;;;5014793;28;20571;-82
2021/01/03 09:32:28;;;;;;;19.08;15.93;;;2.90;99.90;;;;;;5041472;28;20545;-79
2021/01/03 09:35:09;;;;;;;18.48;13.88;;;3.00;99.90;;;;;;5041765;28;20179;-80
2021/01/03 09:37:41;;;;;;;17.77;13.55;;;3.00;99.90;;;;;;5016371;28;20213;-78
2021/01/03 09:40:09;;;;;;;18.02;14.57;;;3.00;99.90;;;;;;5033444;28;20226;-77
2021/01/03 09:42:39;;;;;;;21.58;14.73;;;3.00;99.90;;;;;;5013890;28;20740;-77
2021/01/03 09:45:11;;;;;;;18.23;13.50;;;3.00;99.90;;;;;;5014363;28;20627;-78
2021/01/03 09:47:43;;;;;;;18.67;13.95;;;3.00;99.90;;;;;;5014406;28;20203;-79
2021/01/03 09:50:17;;;;;;;18.23;13.68;;;3.00;99.90;;;;;;5014198;28;20211;-77
2021/01/03 09:53:20;;;;;;;19.17;13.80;;;3.00;99.90;;;;;;5021342;28;20246;-76
2021/01/03 09:56:13;;;;;;;18.80;14.25;;;3.00;99.90;;;;;;5012582;28;20184;-76
2021/01/03 09:58:42;;;;;;;20.50;14.57;;;3.00;99.90;;;;;;5031903;28;20713;-78
2021/01/03 10:01:22;;;;;;;20.67;14.13;;;3.00;99.90;;;;;;5032345;28;20196;-78
2021/01/03 10:03:47;;;;;;;20.35;14.40;;;3.10;99.90;;;;;;5025433;28;20658;-78
2021/01/03 10:06:13;;;;;;;20.98;14.45;;;3.00;99.90;;;;;;5051912;28;20174;-78
2021/01/03 10:08:39;;;;;;;20.20;14.38;;;3.10;99.90;;;;;;5051658;28;20721;-78
2021/01/03 10:11:04;;;;;;;21.42;14.57;;;3.10;99.90;;;;;;5049658;28;20634;-77
2021/01/03 10:13:31;;;;;;;22.92;15.43;;;3.20;99.90;;;;;;5036525;28;20196;-79
2021/01/03 10:15:58;;;;;;;19.13;14.00;;;3.20;99.90;;;;;;5019774;28;20198;-78
2021/01/03 10:18:36;;;;;;;19.70;14.48;;;3.10;99.90;;;;;;5022373;28;20686;-78
2021/01/03 10:21:19;;;;;;;21.17;15.65;;;3.20;99.90;;;;;;5037981;28;20546;-78
2021/01/03 10:23:52;;;;;;;20.08;15.02;;;3.20;99.90;;;;;;5020151;28;20185;-79
2021/01/03 10:26:22;;;;;;;21.65;15.23;;;3.20;99.90;;;;;;5042466;28;20646;-78
2021/01/03 10:28:48;;;;;;;22.70;15.52;;;3.20;99.90;;;;;;5049689;28;20274;-77
2021/01/03 10:31:13;;;;;;;22.67;14.85;;;3.30;99.90;;;;;;5055988;28;20255;-79
2021/01/03 10:33:39;;;;;;;20.13;15.88;;;3.30;99.90;;;;;;5055537;28;20638;-78
2021/01/03 10:36:06;;;;;;;24.83;16.88;;;3.30;99.90;;;;;;5055555;28;20534;-79
2021/01/03 10:38:31;;;;;;;24.88;17.00;;;3.30;99.90;;;;;;5036344;28;20224;-77
2021/01/03 10:40:57;;;;;;;24.98;16.98;;;3.30;99.90;;;;;;5042514;28;20450;-77
2021/01/03 10:43:23;;;;;;;26.10;17.70;;;3.40;99.90;;;;;;5024729;28;20762;-77
2021/01/03 10:45:48;;;;;;;25.98;17.10;;;3.40;99.90;;;;;;5039344;28;20560;-78
2021/01/03 10:48:15;;;;;;;26.48;17.50;;;3.40;99.90;;;;;;5039927;28;20192;-77
2021/01/03 10:50:41;;;;;;;26.23;17.88;;;3.40;99.90;;;;;;5035448;28;20177;-77
2021/01/03 10:53:07;;;;;;;26.33;17.83;;;3.40;99.90;;;;;;5018099;28;20200;-77
2021/01/03 10:55:33;;;;;;;27.90;18.33;;;3.40;99.90;;;;;;5037000;28;20176;-79
2021/01/03 10:58:01;;;;;;;25.25;17.67;;;3.40;99.90;;;;;;5033153;28;20315;-78
2021/01/03 11:00:27;;;;;;;28.95;18.98;;;3.40;99.90;;;;;;5050269;28;20445;-79
2021/01/03 11:02:53;;;;;;;29.70;18.88;;;3.40;99.90;;;;;;5035001;28;20197;-80
2021/01/03 11:05:19;;;;;;;30.38;20.00;;;3.40;99.90;;;;;;5017300;28;20208;-77
2021/01/03 11:07:45;;;;;;;29.27;19.40;;;3.40;99.90;;;;;;5016096;28;20235;-76
2021/01/03 11:10:13;;;;;;;26.48;18.48;;;3.30;99.90;;;;;;5035237;28;20161;-78
2021/01/03 11:12:39;;;;;;;31.35;19.17;;;3.40;99.90;;;;;;5016258;28;20223;-78
2021/01/03 11:15:09;;;;;;;31.38;18.73;;;3.40;99.90;;;;;;5040328;28;20651;-78
2021/01/03 11:17:34;;;;;;;30.67;19.52;;;3.40;99.90;;;;;;5040835;28;20204;-79
2021/01/03 11:20:00;;;;;;;28.90;19.60;;;;;;;;;;5025827;28;20170;-77
2021/01/03 11:22:26;;;;;;;29.55;19.58;;;3.40;99.90;;;;;;5042429;28;20230;-79
2021/01/03 11:24:52;;;;;;;26.88;18.67;;;3.50;99.90;;;;;;5028289;28;20214;-78
2021/01/03 11:27:20;;;;;;;31.23;19.08;;;3.50;99.90;;;;;;5049553;28;20545;-79
2021/01/03 11:29:47;;;;;;;28.50;19.55;;;3.50;99.90;;;;;;5045101;28;20175;-78
2021/01/03 11:32:20;;;;;;;30.92;19.50;;;3.50;99.90;;;;;;5043192;28;20196;-78
2021/01/03 11:34:46;;;;;;;33.13;21.13;;;3.50;99.90;;;;;;5051842;28;20172;-78
2021/01/03 11:37:16;;;;;;;29.70;19.38;;;3.60;99.90;;;;;;5036371;28;20265;-78
2021/01/03 11:39:42;;;;;;;31.77;20.38;;;3.60;99.90;;;;;;5028156;28;20510;-78
2021/01/03 11:42:13;;;;;;;28.25;19.67;;;3.60;99.90;;;;;;5035785;28;20266;-77
2021/01/03 11:44:43;;;;;;;30.50;20.45;;;3.60;99.90;;;;;;5036144;28;20221;-78
2021/01/03 11:47:12;;;;;;;30.73;18.45;;;3.60;99.90;;;;;;5034235;28;20555;-77
2021/01/03 11:49:38;;;;;;;32.65;20.33;;;3.60;99.90;;;;;;5053657;28;20171;-78
2021/01/03 11:52:05;;;;;;;26.48;18.88;;;3.60;99.90;;;;;;5036106;28;20653;-78
2021/01/03 11:54:32;;;;;;;30.30;19.60;;;3.60;99.90;;;;;;5035930;28;20634;-78
2021/01/03 11:56:58;;;;;;;29.52;18.60;;;3.50;99.90;;;;;;5053030;28;20214;-78
2021/01/03 11:59:26;;;;;;;30.77;18.98;;;3.60;99.90;;;;;;5019772;28;20179;-81
2021/01/03 12:02:03;;;;;;;28.73;17.77;;;3.60;99.90;;;;;;5035841;28;20213;-77
2021/01/03 12:04:28;;;;;;;25.88;17.13;;;3.60;99.90;;;;;;5053662;28;20649;-78
2021/01/03 12:07:04;;;;;;;25.27;16.08;;;3.60;99.90;;;;;;5053812;28;20176;-77
2021/01/03 12:09:31;;;;;;;25.15;16.85;;;3.60;99.90;;;;;;5036013;28;20186;-78
2021/01/03 12:12:03;;;;;;;27.25;16.83;;;3.50;99.90;;;;;;5036150;28;20537;-78
2021/01/03 12:14:29;;;;;;;25.77;16.75;;;3.60;99.90;;;;;;5020579;28;20581;-78
2021/01/03 12:16:56;;;;;;;26.85;17.17;;;3.60;99.90;;;;;;5018384;28;20220;-78
2021/01/03 12:19:23;;;;;;;25.48;16.77;;;3.60;99.90;;;;;;5015271;28;20590;-77
2021/01/03 12:21:49;;;;;;;25.13;16.77;;;3.60;99.90;;;;;;5033161;28;20164;-77
2021/01/03 12:24:16;;;;;;;25.63;17.08;;;3.60;99.90;;;;;;5045192;28;20188;-75
2021/01/03 12:26:43;;;;;;;25.33;17.20;;;3.60;99.90;;;;;;5052868;28;20255;-74
2021/01/03 12:29:11;;;;;;;32.25;17.63;;;3.70;99.90;;;;;;5045982;28;20286;-75
2021/01/03 12:31:41;;;;;;;28.08;16.85;;;3.70;99.90;;;;;;5041965;28;20172;-75
2021/01/03 12:34:08;;;;;;;28.48;18.25;;;3.70;99.90;;;;;;5042086;28;20558;-73
2021/01/03 12:36:34;;;;;;;24.42;16.98;;;3.70;99.90;;;;;;5023240;28;20521;-75
2021/01/03 12:39:00;;;;;;;28.40;17.40;;;3.70;99.90;;;;;;5025189;28;20200;-74
2021/01/03 12:41:27;;;;;;;28.63;17.95;;;3.70;99.90;;;;;;5042223;28;20187;-74
2021/01/03 12:43:53;;;;;;;25.88;17.17;;;3.70;99.90;;;;;;5043932;28;20245;-75
2021/01/03 12:46:32;;;;;;;25.23;17.92;;;3.70;99.90;;;;;;5034992;28;20171;-74
2021/01/03 12:48:58;;;;;;;24.27;16.80;;;3.70;99.90;;;;;;5052254;28;20188;-74
2021/01/03 12:51:24;;;;;;;27.58;15.60;;;3.70;99.90;;;;;;5052957;28;20168;-75
2021/01/03 12:53:50;;;;;;;21.25;14.10;;;3.70;99.90;;;;;;5053155;28;20187;-75
2021/01/03 12:56:17;;;;;;;22.88;14.80;;;3.60;99.90;;;;;;5053097;28;20241;-75
2021/01/03 12:58:43;;;;;;;21.23;15.45;;;3.70;99.90;;;;;;5052814;28;20299;-75